sensor_id;sensor_type;location;lat;lon;timestamp;temperature;humidity
9450;DHT22;4763;48.370;10.874;2023-09-30T00:02:05;16.60;99.90
9450;DHT22;4763;48.370;10.874;2023-09-30T00:04:52;16.60;99.90
9450;DHT22;4763;48.370;10.874;2023-09-30T00:07:39;16.50;99.90
9450;DHT22;4763;48.370;10.874;2023-09-30T00:10:26;16.60;99.90
9450;DHT22;4763;48.370;10.874;2023-09-30T00:13:16;16.50;99.90
9450;DHT22;4763;48.370;10.874;2023-09-30T00:16:03;16.40;99.90
9450;DHT22;4763;48.370;10.874;2023-09-30T00:18:52;16.40;99.90
9450;DHT22;4763;48.370;10.874;2023-09-30T00:21:40;16.30;99.90
9450;DHT22;4763;48.370;10.874;2023-09-30T00:24:27;16.30;99.90
9450;DHT22;4763;48.370;10.874;2023-09-30T00:27:14;16.30;99.90
9450;DHT22;4763;48.370;10.874;2023-09-30T00:30:02;16.10;99.90
9450;DHT22;4763;48.370;10.874;2023-09-30T00:32:49;16.10;99.90
9450;DHT22;4763;48.370;10.874;2023-09-30T00:35:37;16.10;99.90
9450;DHT22;4763;48.370;10.874;2023-09-30T00:38:24;16.00;99.90
9450;DHT22;4763;48.370;10.874;2023-09-30T00:41:11;16.00;99.90
9450;DHT22;4763;48.370;10.874;2023-09-30T00:43:59;16.00;99.90
9450;DHT22;4763;48.370;10.874;2023-09-30T00:46:47;16.00;99.90
9450;DHT22;4763;48.370;10.874;2023-09-30T00:49:34;15.90;99.90
9450;DHT22;4763;48.370;10.874;2023-09-30T00:52:22;15.90;99.90
9450;DHT22;4763;48.370;10.874;2023-09-30T00:55:09;15.80;99.90
9450;DHT22;4763;48.370;10.874;2023-09-30T00:57:57;15.70;99.90
9450;DHT22;4763;48.370;10.874;2023-09-30T01:00:44;15.70;99.90
9450;DHT22;4763;48.370;10.874;2023-09-30T01:03:31;15.70;99.90
9450;DHT22;4763;48.370;10.874;2023-09-30T01:06:18;15.60;99.90
9450;DHT22;4763;48.370;10.874;2023-09-30T01:09:07;15.60;99.90
9450;DHT22;4763;48.370;10.874;2023-09-30T01:11:54;15.60;99.90
9450;DHT22;4763;48.370;10.874;2023-09-30T01:14:42;15.60;99.90
9450;DHT22;4763;48.370;10.874;2023-09-30T01:17:29;15.60;99.90
9450;DHT22;4763;48.370;10.874;2023-09-30T01:20:16;15.60;99.90
9450;DHT22;4763;48.370;10.874;2023-09-30T01:23:06;15.50;99.90
9450;DHT22;4763;48.370;10.874;2023-09-30T01:26:01;15.50;99.90
9450;DHT22;4763;48.370;10.874;2023-09-30T01:28:49;15.40;99.90
9450;DHT22;4763;48.370;10.874;2023-09-30T01:31:36;15.40;99.90
9450;DHT22;4763;48.370;10.874;2023-09-30T01:34:23;15.30;99.90
9450;DHT22;4763;48.370;10.874;2023-09-30T01:37:10;15.30;99.90
9450;DHT22;4763;48.370;10.874;2023-09-30T01:39:58;15.20;99.90
9450;DHT22;4763;48.370;10.874;2023-09-30T01:42:45;15.30;99.90
9450;DHT22;4763;48.370;10.874;2023-09-30T01:45:32;15.20;99.90
9450;DHT22;4763;48.370;10.874;2023-09-30T01:48:21;15.20;99.90
9450;DHT22;4763;48.370;10.874;2023-09-30T01:51:08;15.20;99.90
9450;DHT22;4763;48.370;10.874;2023-09-30T01:53:55;15.20;99.90
9450;DHT22;4763;48.370;10.874;2023-09-30T01:56:44;15.10;99.90
9450;DHT22;4763;48.370;10.874;2023-09-30T01:59:31;15.10;99.90
9450;DHT22;4763;48.370;10.874;2023-09-30T02:02:18;15.10;99.90
9450;DHT22;4763;48.370;10.874;2023-09-30T02:05:06;15.10;99.90
9450;DHT22;4763;48.370;10.874;2023-09-30T02:07:54;15.10;99.90
9450;DHT22;4763;48.370;10.874;2023-09-30T02:10:41;15.00;99.90
9450;DHT22;4763;48.370;10.874;2023-09-30T02:13:31;15.00;99.90
9450;DHT22;4763;48.370;10.874;2023-09-30T02:16:18;15.00;99.90
9450;DHT22;4763;48.370;10.874;2023-09-30T02:19:05;15.10;99.90
9450;DHT22;4763;48.370;10.874;2023-09-30T02:21:52;15.10;99.90
9450;DHT22;4763;48.370;10.874;2023-09-30T02:24:39;15.10;99.90
9450;DHT22;4763;48.370;10.874;2023-09-30T02:27:27;15.00;99.90
9450;DHT22;4763;48.370;10.874;2023-09-30T02:30:15;14.90;99.90
9450;DHT22;4763;48.370;10.874;2023-09-30T02:33:03;15.00;99.90
9450;DHT22;4763;48.370;10.874;2023-09-30T02:35:52;15.00;99.90
9450;DHT22;4763;48.370;10.874;2023-09-30T02:38:40;15.00;99.90
9450;DHT22;4763;48.370;10.874;2023-09-30T02:41:27;15.00;99.90
9450;DHT22;4763;48.370;10.874;2023-09-30T02:44:15;15.10;99.90
9450;DHT22;4763;48.370;10.874;2023-09-30T02:47:03;15.10;99.90
9450;DHT22;4763;48.370;10.874;2023-09-30T02:49:50;15.00;99.90
9450;DHT22;4763;48.370;10.874;2023-09-30T02:52:37;15.00;99.90
9450;DHT22;4763;48.370;10.874;2023-09-30T02:55:26;15.10;99.90
9450;DHT22;4763;48.370;10.874;2023-09-30T02:58:13;15.10;99.90
9450;DHT22;4763;48.370;10.874;2023-09-30T03:01:00;15.10;99.90
9450;DHT22;4763;48.370;10.874;2023-09-30T03:03:49;15.00;99.90
9450;DHT22;4763;48.370;10.874;2023-09-30T03:06:36;15.10;99.90
9450;DHT22;4763;48.370;10.874;2023-09-30T03:09:24;15.10;99.90
9450;DHT22;4763;48.370;10.874;2023-09-30T03:12:11;15.10;99.90
9450;DHT22;4763;48.370;10.874;2023-09-30T03:14:59;15.00;99.90
9450;DHT22;4763;48.370;10.874;2023-09-30T03:17:50;15.00;99.90
9450;DHT22;4763;48.370;10.874;2023-09-30T03:20:39;15.00;99.90
9450;DHT22;4763;48.370;10.874;2023-09-30T03:23:29;15.00;99.90
9450;DHT22;4763;48.370;10.874;2023-09-30T03:26:17;15.00;99.90
9450;DHT22;4763;48.370;10.874;2023-09-30T03:29:04;15.00;99.90
9450;DHT22;4763;48.370;10.874;2023-09-30T03:31:51;15.00;99.90
9450;DHT22;4763;48.370;10.874;2023-09-30T03:34:38;14.90;99.90
9450;DHT22;4763;48.370;10.874;2023-09-30T03:37:32;14.90;99.90
9450;DHT22;4763;48.370;10.874;2023-09-30T03:40:19;14.90;99.90
9450;DHT22;4763;48.370;10.874;2023-09-30T03:43:13;14.90;99.90
9450;DHT22;4763;48.370;10.874;2023-09-30T03:46:00;14.80;99.90
9450;DHT22;4763;48.370;10.874;2023-09-30T03:48:47;14.80;99.90
9450;DHT22;4763;48.370;10.874;2023-09-30T03:51:34;14.80;99.90
9450;DHT22;4763;48.370;10.874;2023-09-30T03:54:24;14.80;99.90
9450;DHT22;4763;48.370;10.874;2023-09-30T03:57:12;14.70;99.90
9450;DHT22;4763;48.370;10.874;2023-09-30T04:00:02;14.70;99.90
9450;DHT22;4763;48.370;10.874;2023-09-30T04:02:51;14.70;99.90
9450;DHT22;4763;48.370;10.874;2023-09-30T04:05:43;14.70;99.90
9450;DHT22;4763;48.370;10.874;2023-09-30T04:08:30;14.70;99.90
9450;DHT22;4763;48.370;10.874;2023-09-30T04:11:20;14.70;99.90
9450;DHT22;4763;48.370;10.874;2023-09-30T04:14:07;14.60;99.90
9450;DHT22;4763;48.370;10.874;2023-09-30T04:16:55;14.70;99.90
9450;DHT22;4763;48.370;10.874;2023-09-30T04:19:42;14.70;99.90
9450;DHT22;4763;48.370;10.874;2023-09-30T04:22:29;14.70;99.90
9450;DHT22;4763;48.370;10.874;2023-09-30T04:25:17;14.60;99.90
9450;DHT22;4763;48.370;10.874;2023-09-30T04:28:06;14.60;99.90
9450;DHT22;4763;48.370;10.874;2023-09-30T04:30:54;14.50;99.90
9450;DHT22;4763;48.370;10.874;2023-09-30T04:33:42;14.50;99.90
9450;DHT22;4763;48.370;10.874;2023-09-30T04:36:29;14.50;99.90
9450;DHT22;4763;48.370;10.874;2023-09-30T04:39:16;14.40;99.90
9450;DHT22;4763;48.370;10.874;2023-09-30T04:42:03;14.40;99.90
9450;DHT22;4763;48.370;10.874;2023-09-30T04:44:52;14.40;99.90
9450;DHT22;4763;48.370;10.874;2023-09-30T04:47:40;14.40;99.90
9450;DHT22;4763;48.370;10.874;2023-09-30T04:50:27;14.40;99.90
9450;DHT22;4763;48.370;10.874;2023-09-30T04:53:16;14.30;99.90
9450;DHT22;4763;48.370;10.874;2023-09-30T04:56:04;14.30;99.90
9450;DHT22;4763;48.370;10.874;2023-09-30T04:58:51;14.40;99.90
9450;DHT22;4763;48.370;10.874;2023-09-30T05:01:39;14.30;99.90
9450;DHT22;4763;48.370;10.874;2023-09-30T05:04:26;14.30;99.90
9450;DHT22;4763;48.370;10.874;2023-09-30T05:07:15;14.20;99.90
9450;DHT22;4763;48.370;10.874;2023-09-30T05:10:02;14.10;99.90
9450;DHT22;4763;48.370;10.874;2023-09-30T05:12:53;14.10;99.90
9450;DHT22;4763;48.370;10.874;2023-09-30T05:15:40;14.10;99.90
9450;DHT22;4763;48.370;10.874;2023-09-30T05:18:29;14.00;99.90
9450;DHT22;4763;48.370;10.874;2023-09-30T05:21:16;14.00;99.90
9450;DHT22;4763;48.370;10.874;2023-09-30T05:24:04;14.00;99.90
9450;DHT22;4763;48.370;10.874;2023-09-30T05:26:52;14.00;99.90
9450;DHT22;4763;48.370;10.874;2023-09-30T05:29:39;14.00;99.90
9450;DHT22;4763;48.370;10.874;2023-09-30T05:32:26;14.10;99.90
9450;DHT22;4763;48.370;10.874;2023-09-30T05:35:14;14.10;99.90
9450;DHT22;4763;48.370;10.874;2023-09-30T05:38:02;14.10;99.90
9450;DHT22;4763;48.370;10.874;2023-09-30T05:40:52;14.10;99.90
9450;DHT22;4763;48.370;10.874;2023-09-30T05:43:40;14.10;99.90
9450;DHT22;4763;48.370;10.874;2023-09-30T05:46:30;14.10;99.90
9450;DHT22;4763;48.370;10.874;2023-09-30T05:49:17;14.00;99.90
9450;DHT22;4763;48.370;10.874;2023-09-30T05:52:06;14.10;99.90
9450;DHT22;4763;48.370;10.874;2023-09-30T05:54:53;14.20;99.90
9450;DHT22;4763;48.370;10.874;2023-09-30T05:57:40;14.10;99.90
9450;DHT22;4763;48.370;10.874;2023-09-30T06:00:28;14.20;99.90
9450;DHT22;4763;48.370;10.874;2023-09-30T06:03:31;14.30;99.90
9450;DHT22;4763;48.370;10.874;2023-09-30T06:06:18;14.40;99.90
9450;DHT22;4763;48.370;10.874;2023-09-30T06:09:05;14.40;99.90
9450;DHT22;4763;48.370;10.874;2023-09-30T06:11:53;14.50;99.90
9450;DHT22;4763;48.370;10.874;2023-09-30T06:14:40;14.60;99.90
9450;DHT22;4763;48.370;10.874;2023-09-30T06:17:27;14.60;99.90
9450;DHT22;4763;48.370;10.874;2023-09-30T06:20:16;14.70;99.90
9450;DHT22;4763;48.370;10.874;2023-09-30T06:23:03;14.80;99.90
9450;DHT22;4763;48.370;10.874;2023-09-30T06:25:50;14.80;99.90
9450;DHT22;4763;48.370;10.874;2023-09-30T06:28:38;14.90;99.90
9450;DHT22;4763;48.370;10.874;2023-09-30T06:31:26;15.00;99.90
9450;DHT22;4763;48.370;10.874;2023-09-30T06:34:14;15.00;99.90
9450;DHT22;4763;48.370;10.874;2023-09-30T06:37:04;15.10;99.90
9450;DHT22;4763;48.370;10.874;2023-09-30T06:39:51;15.10;99.90
9450;DHT22;4763;48.370;10.874;2023-09-30T06:42:39;15.20;99.90
9450;DHT22;4763;48.370;10.874;2023-09-30T06:45:26;15.30;99.90
9450;DHT22;4763;48.370;10.874;2023-09-30T06:48:13;15.30;99.90
9450;DHT22;4763;48.370;10.874;2023-09-30T06:51:01;15.40;99.90
9450;DHT22;4763;48.370;10.874;2023-09-30T06:53:50;15.40;99.90
9450;DHT22;4763;48.370;10.874;2023-09-30T06:56:37;15.40;99.90
9450;DHT22;4763;48.370;10.874;2023-09-30T06:59:24;15.50;99.90
9450;DHT22;4763;48.370;10.874;2023-09-30T07:02:11;15.60;99.90
9450;DHT22;4763;48.370;10.874;2023-09-30T07:04:58;15.70;99.90
9450;DHT22;4763;48.370;10.874;2023-09-30T07:07:46;15.80;99.90
9450;DHT22;4763;48.370;10.874;2023-09-30T07:10:34;15.90;99.90
9450;DHT22;4763;48.370;10.874;2023-09-30T07:13:21;16.00;99.90
9450;DHT22;4763;48.370;10.874;2023-09-30T07:16:08;15.90;99.90
9450;DHT22;4763;48.370;10.874;2023-09-30T07:18:55;15.80;99.90
9450;DHT22;4763;48.370;10.874;2023-09-30T07:21:43;15.90;99.90
9450;DHT22;4763;48.370;10.874;2023-09-30T07:24:32;16.00;99.90
9450;DHT22;4763;48.370;10.874;2023-09-30T07:27:21;16.00;99.90
9450;DHT22;4763;48.370;10.874;2023-09-30T07:30:09;16.20;99.90
9450;DHT22;4763;48.370;10.874;2023-09-30T07:32:57;16.20;99.90
9450;DHT22;4763;48.370;10.874;2023-09-30T07:35:45;16.20;99.90
9450;DHT22;4763;48.370;10.874;2023-09-30T07:38:32;16.40;99.90
9450;DHT22;4763;48.370;10.874;2023-09-30T07:41:19;16.40;99.90
9450;DHT22;4763;48.370;10.874;2023-09-30T07:44:07;16.40;99.90
9450;DHT22;4763;48.370;10.874;2023-09-30T07:46:55;16.50;99.90
9450;DHT22;4763;48.370;10.874;2023-09-30T07:49:42;16.70;99.90
9450;DHT22;4763;48.370;10.874;2023-09-30T07:52:29;16.70;99.90
9450;DHT22;4763;48.370;10.874;2023-09-30T07:55:17;16.80;99.90
9450;DHT22;4763;48.370;10.874;2023-09-30T07:58:04;16.80;99.90
9450;DHT22;4763;48.370;10.874;2023-09-30T08:00:52;16.90;99.90
9450;DHT22;4763;48.370;10.874;2023-09-30T08:03:39;17.00;99.90
9450;DHT22;4763;48.370;10.874;2023-09-30T08:06:26;17.20;99.90
9450;DHT22;4763;48.370;10.874;2023-09-30T08:09:14;17.20;99.90
9450;DHT22;4763;48.370;10.874;2023-09-30T08:12:01;17.30;99.90
9450;DHT22;4763;48.370;10.874;2023-09-30T08:14:48;17.30;99.90
9450;DHT22;4763;48.370;10.874;2023-09-30T08:17:38;17.40;99.90
9450;DHT22;4763;48.370;10.874;2023-09-30T08:20:25;17.60;99.90
9450;DHT22;4763;48.370;10.874;2023-09-30T08:23:13;17.60;99.90
9450;DHT22;4763;48.370;10.874;2023-09-30T08:26:00;17.60;99.90
9450;DHT22;4763;48.370;10.874;2023-09-30T08:28:47;17.50;99.90
9450;DHT22;4763;48.370;10.874;2023-09-30T08:31:35;17.60;99.90
9450;DHT22;4763;48.370;10.874;2023-09-30T08:34:23;17.50;99.90
9450;DHT22;4763;48.370;10.874;2023-09-30T08:37:10;17.50;99.90
9450;DHT22;4763;48.370;10.874;2023-09-30T08:39:57;17.50;99.90
9450;DHT22;4763;48.370;10.874;2023-09-30T08:42:44;17.60;99.90
9450;DHT22;4763;48.370;10.874;2023-09-30T08:45:33;17.80;99.90
9450;DHT22;4763;48.370;10.874;2023-09-30T08:48:26;17.90;99.90
9450;DHT22;4763;48.370;10.874;2023-09-30T08:51:15;17.90;99.90
9450;DHT22;4763;48.370;10.874;2023-09-30T08:54:02;17.90;99.90
9450;DHT22;4763;48.370;10.874;2023-09-30T08:56:51;18.00;99.90
9450;DHT22;4763;48.370;10.874;2023-09-30T08:59:41;18.20;99.90
9450;DHT22;4763;48.370;10.874;2023-09-30T09:02:28;18.40;99.90
9450;DHT22;4763;48.370;10.874;2023-09-30T09:05:16;18.60;99.90
9450;DHT22;4763;48.370;10.874;2023-09-30T09:08:05;18.70;99.90
9450;DHT22;4763;48.370;10.874;2023-09-30T09:10:56;19.00;99.90
9450;DHT22;4763;48.370;10.874;2023-09-30T09:13:48;19.10;99.90
9450;DHT22;4763;48.370;10.874;2023-09-30T09:16:36;19.10;99.90
9450;DHT22;4763;48.370;10.874;2023-09-30T09:19:23;19.10;99.90
9450;DHT22;4763;48.370;10.874;2023-09-30T09:22:10;19.30;99.90
9450;DHT22;4763;48.370;10.874;2023-09-30T09:24:59;19.30;99.90
9450;DHT22;4763;48.370;10.874;2023-09-30T09:27:46;19.10;99.90
9450;DHT22;4763;48.370;10.874;2023-09-30T09:30:33;19.00;99.90
9450;DHT22;4763;48.370;10.874;2023-09-30T09:33:35;18.90;99.90
9450;DHT22;4763;48.370;10.874;2023-09-30T09:36:38;19.10;99.90
9450;DHT22;4763;48.370;10.874;2023-09-30T09:39:29;19.10;99.90
9450;DHT22;4763;48.370;10.874;2023-09-30T09:42:29;19.40;99.90
9450;DHT22;4763;48.370;10.874;2023-09-30T09:45:17;19.60;99.90
9450;DHT22;4763;48.370;10.874;2023-09-30T09:48:05;19.90;99.90
9450;DHT22;4763;48.370;10.874;2023-09-30T09:50:52;19.90;99.90
9450;DHT22;4763;48.370;10.874;2023-09-30T09:53:41;19.70;99.90
9450;DHT22;4763;48.370;10.874;2023-09-30T09:56:28;19.70;99.90
9450;DHT22;4763;48.370;10.874;2023-09-30T09:59:16;19.60;99.90
9450;DHT22;4763;48.370;10.874;2023-09-30T10:02:09;19.70;99.90
9450;DHT22;4763;48.370;10.874;2023-09-30T10:04:57;19.90;99.90
9450;DHT22;4763;48.370;10.874;2023-09-30T10:07:52;20.10;99.90
9450;DHT22;4763;48.370;10.874;2023-09-30T10:10:41;20.40;99.90
9450;DHT22;4763;48.370;10.874;2023-09-30T10:13:51;20.70;99.90
9450;DHT22;4763;48.370;10.874;2023-09-30T10:16:49;20.70;99.90
9450;DHT22;4763;48.370;10.874;2023-09-30T10:20:02;20.60;99.90
9450;DHT22;4763;48.370;10.874;2023-09-30T10:23:26;20.80;99.90
9450;DHT22;4763;48.370;10.874;2023-09-30T10:26:18;20.90;99.90
9450;DHT22;4763;48.370;10.874;2023-09-30T10:29:09;20.70;99.90
9450;DHT22;4763;48.370;10.874;2023-09-30T10:31:56;20.50;99.90
9450;DHT22;4763;48.370;10.874;2023-09-30T10:34:47;20.30;99.90
9450;DHT22;4763;48.370;10.874;2023-09-30T10:37:35;20.80;99.90
9450;DHT22;4763;48.370;10.874;2023-09-30T10:40:27;21.20;99.90
9450;DHT22;4763;48.370;10.874;2023-09-30T10:43:29;21.80;99.90
9450;DHT22;4763;48.370;10.874;2023-09-30T10:46:32;21.90;99.90
9450;DHT22;4763;48.370;10.874;2023-09-30T10:49:31;21.70;99.90
9450;DHT22;4763;48.370;10.874;2023-09-30T10:52:21;21.20;99.90
9450;DHT22;4763;48.370;10.874;2023-09-30T10:55:09;21.10;99.90
9450;DHT22;4763;48.370;10.874;2023-09-30T10:57:58;21.20;99.90
9450;DHT22;4763;48.370;10.874;2023-09-30T11:00:52;21.30;99.90
9450;DHT22;4763;48.370;10.874;2023-09-30T11:03:40;21.30;99.90
9450;DHT22;4763;48.370;10.874;2023-09-30T11:06:27;21.30;99.90
9450;DHT22;4763;48.370;10.874;2023-09-30T11:09:15;21.40;99.90
9450;DHT22;4763;48.370;10.874;2023-09-30T11:12:03;21.30;99.90
9450;DHT22;4763;48.370;10.874;2023-09-30T11:14:58;21.10;99.90
9450;DHT22;4763;48.370;10.874;2023-09-30T11:17:45;21.10;99.90
9450;DHT22;4763;48.370;10.874;2023-09-30T11:20:33;21.20;99.90
9450;DHT22;4763;48.370;10.874;2023-09-30T11:23:20;21.20;99.90
9450;DHT22;4763;48.370;10.874;2023-09-30T11:26:07;21.20;99.90
9450;DHT22;4763;48.370;10.874;2023-09-30T11:28:55;21.40;99.90
9450;DHT22;4763;48.370;10.874;2023-09-30T11:31:45;21.80;99.90
9450;DHT22;4763;48.370;10.874;2023-09-30T11:34:34;21.80;99.90
9450;DHT22;4763;48.370;10.874;2023-09-30T11:37:21;21.70;99.90
9450;DHT22;4763;48.370;10.874;2023-09-30T11:40:13;22.00;99.90
9450;DHT22;4763;48.370;10.874;2023-09-30T11:43:07;21.90;99.90
9450;DHT22;4763;48.370;10.874;2023-09-30T11:46:04;21.90;99.90
9450;DHT22;4763;48.370;10.874;2023-09-30T11:48:58;22.60;99.90
9450;DHT22;4763;48.370;10.874;2023-09-30T11:51:45;23.00;99.90
9450;DHT22;4763;48.370;10.874;2023-09-30T11:54:34;23.40;99.90
9450;DHT22;4763;48.370;10.874;2023-09-30T11:57:23;23.50;99.90
9450;DHT22;4763;48.370;10.874;2023-09-30T12:00:11;23.40;99.90
9450;DHT22;4763;48.370;10.874;2023-09-30T12:03:00;23.30;99.90
9450;DHT22;4763;48.370;10.874;2023-09-30T12:05:48;23.30;99.90
9450;DHT22;4763;48.370;10.874;2023-09-30T12:08:35;23.00;99.90
9450;DHT22;4763;48.370;10.874;2023-09-30T12:11:23;23.20;99.90
9450;DHT22;4763;48.370;10.874;2023-09-30T12:14:12;23.50;99.90
9450;DHT22;4763;48.370;10.874;2023-09-30T12:16:59;23.50;99.90
9450;DHT22;4763;48.370;10.874;2023-09-30T12:19:46;23.20;99.90
9450;DHT22;4763;48.370;10.874;2023-09-30T12:22:35;23.70;99.90
9450;DHT22;4763;48.370;10.874;2023-09-30T12:25:23;23.80;99.90
9450;DHT22;4763;48.370;10.874;2023-09-30T12:28:11;23.90;99.90
9450;DHT22;4763;48.370;10.874;2023-09-30T12:31:00;23.80;99.90
9450;DHT22;4763;48.370;10.874;2023-09-30T12:33:48;23.70;99.90
9450;DHT22;4763;48.370;10.874;2023-09-30T12:36:37;23.60;99.90
9450;DHT22;4763;48.370;10.874;2023-09-30T12:39:25;23.80;99.90
9450;DHT22;4763;48.370;10.874;2023-09-30T12:42:16;23.70;99.90
9450;DHT22;4763;48.370;10.874;2023-09-30T12:45:03;23.50;99.90
9450;DHT22;4763;48.370;10.874;2023-09-30T12:47:51;23.20;99.90
9450;DHT22;4763;48.370;10.874;2023-09-30T12:50:40;23.20;99.90
9450;DHT22;4763;48.370;10.874;2023-09-30T12:53:27;23.10;99.90
9450;DHT22;4763;48.370;10.874;2023-09-30T12:56:15;22.90;99.90
9450;DHT22;4763;48.370;10.874;2023-09-30T12:59:02;22.70;99.90
9450;DHT22;4763;48.370;10.874;2023-09-30T13:01:49;22.50;99.90
9450;DHT22;4763;48.370;10.874;2023-09-30T13:04:36;22.50;99.90
9450;DHT22;4763;48.370;10.874;2023-09-30T13:07:28;22.60;99.90
9450;DHT22;4763;48.370;10.874;2023-09-30T13:10:15;22.70;99.90
9450;DHT22;4763;48.370;10.874;2023-09-30T13:13:04;23.00;99.90
9450;DHT22;4763;48.370;10.874;2023-09-30T13:15:51;23.10;99.90
9450;DHT22;4763;48.370;10.874;2023-09-30T13:18:38;23.00;99.90
9450;DHT22;4763;48.370;10.874;2023-09-30T13:21:25;23.10;99.90
9450;DHT22;4763;48.370;10.874;2023-09-30T13:24:13;23.20;99.90
9450;DHT22;4763;48.370;10.874;2023-09-30T13:27:00;23.40;99.90
9450;DHT22;4763;48.370;10.874;2023-09-30T13:29:48;23.60;99.90
9450;DHT22;4763;48.370;10.874;2023-09-30T13:32:35;23.70;99.90
9450;DHT22;4763;48.370;10.874;2023-09-30T13:35:22;23.50;99.90
9450;DHT22;4763;48.370;10.874;2023-09-30T13:38:09;23.60;99.90
9450;DHT22;4763;48.370;10.874;2023-09-30T13:40:56;23.70;99.90
9450;DHT22;4763;48.370;10.874;2023-09-30T13:43:43;23.70;99.90
9450;DHT22;4763;48.370;10.874;2023-09-30T13:46:32;23.60;99.90
9450;DHT22;4763;48.370;10.874;2023-09-30T13:49:19;23.70;99.90
9450;DHT22;4763;48.370;10.874;2023-09-30T13:52:06;23.40;99.90
9450;DHT22;4763;48.370;10.874;2023-09-30T13:54:53;23.70;99.90
9450;DHT22;4763;48.370;10.874;2023-09-30T13:57:41;23.80;99.90
9450;DHT22;4763;48.370;10.874;2023-09-30T14:00:28;23.70;99.90
9450;DHT22;4763;48.370;10.874;2023-09-30T14:03:16;23.80;99.90
9450;DHT22;4763;48.370;10.874;2023-09-30T14:06:09;24.20;99.90
9450;DHT22;4763;48.370;10.874;2023-09-30T14:08:57;24.50;99.90
9450;DHT22;4763;48.370;10.874;2023-09-30T14:11:45;24.60;99.90
9450;DHT22;4763;48.370;10.874;2023-09-30T14:14:32;24.40;99.90
9450;DHT22;4763;48.370;10.874;2023-09-30T14:17:21;24.40;99.90
9450;DHT22;4763;48.370;10.874;2023-09-30T14:20:10;24.50;99.90
9450;DHT22;4763;48.370;10.874;2023-09-30T14:22:58;24.50;99.90
9450;DHT22;4763;48.370;10.874;2023-09-30T14:25:45;24.40;99.90
9450;DHT22;4763;48.370;10.874;2023-09-30T14:28:32;24.00;99.90
9450;DHT22;4763;48.370;10.874;2023-09-30T14:31:19;23.70;99.90
9450;DHT22;4763;48.370;10.874;2023-09-30T14:34:06;23.50;99.90
9450;DHT22;4763;48.370;10.874;2023-09-30T14:36:54;23.20;99.90
9450;DHT22;4763;48.370;10.874;2023-09-30T14:39:41;23.10;99.90
9450;DHT22;4763;48.370;10.874;2023-09-30T14:42:28;22.70;99.90
9450;DHT22;4763;48.370;10.874;2023-09-30T14:45:15;22.50;99.90
9450;DHT22;4763;48.370;10.874;2023-09-30T14:48:03;22.40;99.90
9450;DHT22;4763;48.370;10.874;2023-09-30T14:50:51;22.30;99.90
9450;DHT22;4763;48.370;10.874;2023-09-30T14:53:39;22.10;99.90
9450;DHT22;4763;48.370;10.874;2023-09-30T14:56:26;22.00;99.90
9450;DHT22;4763;48.370;10.874;2023-09-30T14:59:13;21.90;99.90
9450;DHT22;4763;48.370;10.874;2023-09-30T15:02:00;21.90;99.90
9450;DHT22;4763;48.370;10.874;2023-09-30T15:04:47;21.80;99.90
9450;DHT22;4763;48.370;10.874;2023-09-30T15:07:35;21.80;99.90
9450;DHT22;4763;48.370;10.874;2023-09-30T15:10:24;21.60;99.90
9450;DHT22;4763;48.370;10.874;2023-09-30T15:13:12;21.70;99.90
9450;DHT22;4763;48.370;10.874;2023-09-30T15:15:59;21.60;99.90
9450;DHT22;4763;48.370;10.874;2023-09-30T15:18:46;21.50;99.90
9450;DHT22;4763;48.370;10.874;2023-09-30T15:21:33;21.50;99.90
9450;DHT22;4763;48.370;10.874;2023-09-30T15:24:20;21.30;99.90
9450;DHT22;4763;48.370;10.874;2023-09-30T15:27:09;21.10;99.90
9450;DHT22;4763;48.370;10.874;2023-09-30T15:29:56;21.00;99.90
9450;DHT22;4763;48.370;10.874;2023-09-30T15:32:44;20.90;99.90
9450;DHT22;4763;48.370;10.874;2023-09-30T15:35:31;20.70;99.90
9450;DHT22;4763;48.370;10.874;2023-09-30T15:38:18;20.70;99.90
9450;DHT22;4763;48.370;10.874;2023-09-30T15:41:05;20.60;99.90
9450;DHT22;4763;48.370;10.874;2023-09-30T15:43:58;20.30;99.90
9450;DHT22;4763;48.370;10.874;2023-09-30T15:46:45;20.20;99.90
9450;DHT22;4763;48.370;10.874;2023-09-30T15:49:33;20.10;99.90
9450;DHT22;4763;48.370;10.874;2023-09-30T15:52:20;20.00;99.90
9450;DHT22;4763;48.370;10.874;2023-09-30T15:55:07;19.90;99.90
9450;DHT22;4763;48.370;10.874;2023-09-30T15:57:54;19.80;99.90
9450;DHT22;4763;48.370;10.874;2023-09-30T16:00:43;19.70;99.90
9450;DHT22;4763;48.370;10.874;2023-09-30T16:03:30;19.60;99.90
9450;DHT22;4763;48.370;10.874;2023-09-30T16:06:17;19.50;99.90
9450;DHT22;4763;48.370;10.874;2023-09-30T16:09:04;19.30;99.90
9450;DHT22;4763;48.370;10.874;2023-09-30T16:11:51;19.20;99.90
9450;DHT22;4763;48.370;10.874;2023-09-30T16:14:38;19.10;99.90
9450;DHT22;4763;48.370;10.874;2023-09-30T16:17:27;19.00;99.90
9450;DHT22;4763;48.370;10.874;2023-09-30T16:20:14;18.90;99.90
9450;DHT22;4763;48.370;10.874;2023-09-30T16:23:01;18.80;99.90
9450;DHT22;4763;48.370;10.874;2023-09-30T16:25:48;18.70;99.90
9450;DHT22;4763;48.370;10.874;2023-09-30T16:28:35;18.60;99.90
9450;DHT22;4763;48.370;10.874;2023-09-30T16:31:22;18.40;99.90
9450;DHT22;4763;48.370;10.874;2023-09-30T16:34:11;18.40;99.90
9450;DHT22;4763;48.370;10.874;2023-09-30T16:36:58;18.30;99.90
9450;DHT22;4763;48.370;10.874;2023-09-30T16:39:45;18.10;99.90
9450;DHT22;4763;48.370;10.874;2023-09-30T16:42:32;18.00;99.90
9450;DHT22;4763;48.370;10.874;2023-09-30T16:45:20;17.90;99.90
9450;DHT22;4763;48.370;10.874;2023-09-30T16:48:07;17.80;99.90
9450;DHT22;4763;48.370;10.874;2023-09-30T16:50:56;17.70;99.90
9450;DHT22;4763;48.370;10.874;2023-09-30T16:53:43;17.60;99.90
9450;DHT22;4763;48.370;10.874;2023-09-30T16:56:30;17.40;99.90
9450;DHT22;4763;48.370;10.874;2023-09-30T16:59:17;17.30;99.90
9450;DHT22;4763;48.370;10.874;2023-09-30T17:02:06;17.20;99.90
9450;DHT22;4763;48.370;10.874;2023-09-30T17:04:54;17.10;99.90
9450;DHT22;4763;48.370;10.874;2023-09-30T17:07:44;17.00;99.90
9450;DHT22;4763;48.370;10.874;2023-09-30T17:10:32;16.90;99.90
9450;DHT22;4763;48.370;10.874;2023-09-30T17:13:19;16.90;99.90
9450;DHT22;4763;48.370;10.874;2023-09-30T17:16:06;16.80;99.90
9450;DHT22;4763;48.370;10.874;2023-09-30T17:18:53;16.70;99.90
9450;DHT22;4763;48.370;10.874;2023-09-30T17:21:40;16.60;99.90
9450;DHT22;4763;48.370;10.874;2023-09-30T17:24:30;16.50;99.90
9450;DHT22;4763;48.370;10.874;2023-09-30T17:27:17;16.50;99.90
9450;DHT22;4763;48.370;10.874;2023-09-30T17:30:06;16.40;99.90
9450;DHT22;4763;48.370;10.874;2023-09-30T17:32:53;16.30;99.90
9450;DHT22;4763;48.370;10.874;2023-09-30T17:35:40;16.30;99.90
9450;DHT22;4763;48.370;10.874;2023-09-30T17:38:28;16.20;99.90
9450;DHT22;4763;48.370;10.874;2023-09-30T17:41:16;16.10;99.90
9450;DHT22;4763;48.370;10.874;2023-09-30T17:44:04;16.10;99.90
9450;DHT22;4763;48.370;10.874;2023-09-30T17:46:51;16.10;99.90
9450;DHT22;4763;48.370;10.874;2023-09-30T17:49:38;16.00;99.90
9450;DHT22;4763;48.370;10.874;2023-09-30T17:52:25;15.90;99.90
9450;DHT22;4763;48.370;10.874;2023-09-30T17:55:13;15.90;99.90
9450;DHT22;4763;48.370;10.874;2023-09-30T17:58:02;15.80;99.90
9450;DHT22;4763;48.370;10.874;2023-09-30T18:00:49;15.70;99.90